航空気象通報

ウインドサーファーのための航空気象通報による風予報です。

11/5-11/7の航空気象通報

2016年11月05日 21時21分16秒 | TAF
羽田空港
TAF RJTT 051107Z 0512/0618 30006KT 9999 FEW030
BECMG 0522/0524 35016KT
BECMG 0606/0609 05018KT
日本時間5日21時-6日07時:300度から6ノットの風
07-09時:風が変化
09-15時:350度から16ノットの風
15-18時:風が変化
18時-7日03時:050度から18ノットの風


静岡空港
TAF RJNS 051105Z 0512/0618 26012KT 9999 FEW030
BECMG 0600/0603 16006KT
日本時間5日21時-6日09時:260度から12ノットの風
09-12時:風が変化
12時-7日03時:160度から6ノットの風


福岡空港
TAF RJFF 051105Z 0512/0618 15006KT 9999 FEW035
BECMG 0600/0603 02011KT
BECMG 0615/0618 15004KT
日本時間5日21時-6日09時:150度から6ノットの風
09-12時:風が変化
12-24時:020度から11ノットの風
7日00-03時:風が変化
03時:150度から4ノットの風


那覇空港
TAF ROAH 051105Z 0512/0618 04008KT 9999 FEW035 SCT045
日本時間5日21時-7日03時:040度から8ノットの風


石垣空港
TAF ROIG 051106Z 0512/0618 08008KT 9999 FEW025
日本時間5日21時-7日03時:080度から8ノットの風


マウイのカフルイ空港
PHOG 051144Z 0512/0612 04013KT P6SM FEW030 SCT050
FM052000 05016G24KT P6SM FEW040 FEW060
FM060500 05008KT P6SM FEW050 AMD LTD TO VIS AND WIND 0512/0516
ハワイ時間5日02-10時:040度から13ノットの風
10-19時:050度から16ノット、突風24ノット
19時-6日02時:050度から8ノットの風


サイパン空港
TAF PGSN 051120Z 0512/0612 18010KT P6SM SCT018 SCT100
FM052100 19014G20KT P6SM VCSH FEW018 BKN140
マリアナ時間5日22時-6日07時:180度から10ノットの風

07-22時:190度から14ノット、突風20ノット

ジャンル:
お天気
コメント   この記事についてブログを書く
この記事をはてなブックマークに追加
« 11/4-11/6の航空気象通報 | トップ | 11/6-11/8の航空気象通報 »
最近の画像もっと見る

コメントを投稿

ブログ作成者から承認されるまでコメントは反映されません。

TAF」カテゴリの最新記事